METAR Data
IDs: Format: Raw Decoded Include TAF

Data at: 1358 UTC 25 Nov 2020

METAR for:KIAH (Houston/Bush Intl, TX, US)
Text:KIAH 251353Z 34007KT 10SM BKN060 BKN085 18/16 A3004 RMK AO2 SLP174 T01830156
Temperature: 18.3°C ( 65°F)
Dewpoint: 15.6°C ( 60°F) [RH = 84%]
Pressure (altimeter):30.04 inches Hg (1017.4 mb) [Sea level pressure: 1017.4 mb]
Winds:from the NNW (340 degrees) at 8 MPH (7 knots; 3.6 m/s)
Visibility:10 or more sm (16+ km)
Ceiling:6000 feet AGL
Clouds: broken clouds at 6000 feet AGL, broken clouds at 8500 feet AGL

METAR for:KHOU (Houston/Hobby Arpt, TX, US)
Text:KHOU 251353Z 35005KT 10SM BKN035 BKN050 19/14 A3004 RMK AO2 SLP176 T01940144
Temperature: 19.4°C ( 67°F)
Dewpoint: 14.4°C ( 58°F) [RH = 73%]
Pressure (altimeter):30.04 inches Hg (1017.4 mb) [Sea level pressure: 1017.6 mb]
Winds:from the N (350 degrees) at 6 MPH (5 knots; 2.6 m/s)
Visibility:10 or more sm (16+ km)
Ceiling:3500 feet AGL
Clouds: broken clouds at 3500 feet AGL, broken clouds at 5000 feet AGL

METAR for:KGLS (Galveston/Scholes In, TX, US)
Text:KGLS 251352Z 36013KT 10SM BKN010 BKN029 OVC045 20/16 A3004 RMK AO2 SLP170 T02000156
Temperature: 20.0°C ( 68°F)
Dewpoint: 15.6°C ( 60°F) [RH = 76%]
Pressure (altimeter):30.04 inches Hg (1017.4 mb) [Sea level pressure: 1017.0 mb]
Winds:from the N (360 degrees) at 15 MPH (13 knots; 6.7 m/s)
Visibility:10 or more sm (16+ km)
Ceiling:1000 feet AGL
Clouds: broken clouds at 1000 feet AGL, broken clouds at 2900 feet AGL, overcast cloud deck at 4500 feet AGL

METAR for:KLVJ (Houston/Pearland Rgn, TX, US)
Text:KLVJ 251353Z AUTO 35008KT 10SM BKN034 BKN047 BKN080 20/14 A3005 RMK AO2 RAE05 SLP174 P0000 T02000139
Temperature: 20.0°C ( 68°F)
Dewpoint: 13.9°C ( 57°F) [RH = 68%]
Pressure (altimeter):30.05 inches Hg (1017.7 mb) [Sea level pressure: 1017.4 mb]
Winds:from the N (350 degrees) at 9 MPH (8 knots; 4.1 m/s)
Visibility:10 or more sm (16+ km)
Ceiling:3400 feet AGL
Clouds: broken clouds at 3400 feet AGL, broken clouds at 4700 feet AGL, broken clouds at 8000 feet AGL
QC Flag:automated observation with no human augmentation

METAR for:KSGR (Houston/Sugar Land R, TX, US)
Text:KSGR 251353Z 35007KT 10SM BKN042 BKN065 OVC080 19/15 A3004 RMK AO2 SLP173 T01940150
Temperature: 19.4°C ( 67°F)
Dewpoint: 15.0°C ( 59°F) [RH = 76%]
Pressure (altimeter):30.04 inches Hg (1017.4 mb) [Sea level pressure: 1017.3 mb]
Winds:from the N (350 degrees) at 8 MPH (7 knots; 3.6 m/s)
Visibility:10 or more sm (16+ km)
Ceiling:4200 feet AGL
Clouds: broken clouds at 4200 feet AGL, broken clouds at 6500 feet AGL, overcast cloud deck at 8000 feet AGL

METAR for:KDWH (Houston/Hooks Mem, TX, US)
Text:KDWH 251353Z AUTO 34007KT 10SM SCT060 OVC085 17/14 A3005 RMK AO2 SLP174 T01720139
Temperature: 17.2°C ( 63°F)
Dewpoint: 13.9°C ( 57°F) [RH = 81%]
Pressure (altimeter):30.05 inches Hg (1017.7 mb) [Sea level pressure: 1017.4 mb]
Winds:from the NNW (340 degrees) at 8 MPH (7 knots; 3.6 m/s)
Visibility:10 or more sm (16+ km)
Ceiling:8500 feet AGL
Clouds: scattered clouds at 6000 feet AGL, overcast cloud deck at 8500 feet AGL
QC Flag:automated observation with no human augmentation

METAR for:KCLL (College Station/East, TX, US)
Text:KCLL 251353Z 34010KT 10SM BKN075 OVC090 13/06 A3010 RMK AO2 SLP189 T01280056
Temperature: 12.8°C ( 55°F)
Dewpoint: 5.6°C ( 42°F) [RH = 62%]
Pressure (altimeter):30.10 inches Hg (1019.4 mb) [Sea level pressure: 1018.9 mb]
Winds:from the NNW (340 degrees) at 12 MPH (10 knots; 5.1 m/s)
Visibility:10 or more sm (16+ km)
Ceiling:7500 feet AGL
Clouds: broken clouds at 7500 feet AGL, overcast cloud deck at 9000 feet AGL

METAR for:KUTS (Huntsville Muni, TX, US)
Text:KUTS 251353Z AUTO 31006KT 10SM FEW013 SCT075 SCT090 13/08 A3008 RMK AO2 SLP184 T01330083
Temperature: 13.3°C ( 56°F)
Dewpoint: 8.3°C ( 47°F) [RH = 72%]
Pressure (altimeter):30.08 inches Hg (1018.7 mb) [Sea level pressure: 1018.4 mb]
Winds:from the NW (310 degrees) at 7 MPH (6 knots; 3.1 m/s)
Visibility:10 or more sm (16+ km)
Ceiling:at least 12,000 feet AGL
Clouds: few clouds at 1300 feet AGL, scattered clouds at 7500 feet AGL, scattered clouds at 9000 feet AGL
QC Flag:automated observation with no human augmentation

METAR for:KCXO (Conroe/Executive Arp, TX, US)
Text:KCXO 251353Z 33006KT 10SM FEW009 OVC070 16/14 A3007 RMK AO2 SLP179 T01610144
Temperature: 16.1°C ( 61°F)
Dewpoint: 14.4°C ( 58°F) [RH = 90%]
Pressure (altimeter):30.07 inches Hg (1018.4 mb) [Sea level pressure: 1017.9 mb]
Winds:from the NNW (330 degrees) at 7 MPH (6 knots; 3.1 m/s)
Visibility:10 or more sm (16+ km)
Ceiling:7000 feet AGL
Clouds: few clouds at 900 feet AGL, overcast cloud deck at 7000 feet AGL

METAR for:KLBX (Angleton/Texas Gulf, TX, US)
Text:KLBX 251353Z AUTO 35011KT 10SM FEW012 BKN019 BKN029 23/21 A3003 RMK AO2 SLP167 T02280206
Temperature: 22.8°C ( 73°F)
Dewpoint: 20.6°C ( 69°F) [RH = 87%]
Pressure (altimeter):30.03 inches Hg (1017.0 mb) [Sea level pressure: 1016.7 mb]
Winds:from the N (350 degrees) at 13 MPH (11 knots; 5.7 m/s)
Visibility:10 or more sm (16+ km)
Ceiling:1900 feet AGL
Clouds: few clouds at 1200 feet AGL, broken clouds at 1900 feet AGL, broken clouds at 2900 feet AGL
QC Flag:automated observation with no human augmentation

METAR for:KPSX (Palacios Muni, TX, US)
Text:KPSX 251352Z AUTO 00000KT 10SM FEW022 SCT028 OVC037 23/22 A3002 RMK AO2 SLP164 T02280217
Temperature: 22.8°C ( 73°F)
Dewpoint: 21.7°C ( 71°F) [RH = 94%]
Pressure (altimeter):30.02 inches Hg (1016.7 mb) [Sea level pressure: 1016.4 mb]
Winds:calm
Visibility:10 or more sm (16+ km)
Ceiling:3700 feet AGL
Clouds: few clouds at 2200 feet AGL, scattered clouds at 2800 feet AGL, overcast cloud deck at 3700 feet AGL
QC Flag:automated observation with no human augmentation